createdAt,value
2018-02-12T00:01:55.635Z,99454
2018-02-12T00:04:23.880Z,99453
2018-02-12T00:06:52.160Z,99445
2018-02-12T00:09:20.507Z,99445
2018-02-12T00:11:48.765Z,99452
2018-02-12T00:14:17.104Z,99441
2018-02-12T00:16:45.416Z,99449
2018-02-12T00:19:13.723Z,99457
2018-02-12T00:21:42.037Z,99462
2018-02-12T00:24:10.326Z,99463
2018-02-12T00:26:39.448Z,99466
2018-02-12T00:29:07.692Z,99470
2018-02-12T00:31:36.770Z,99469
2018-02-12T00:34:05.012Z,99476
2018-02-12T00:36:33.317Z,99477
2018-02-12T00:39:01.606Z,99481
2018-02-12T00:41:29.888Z,99476
2018-02-12T00:43:58.138Z,99474
2018-02-12T00:46:26.442Z,99478
2018-02-12T00:48:54.715Z,99482
2018-02-12T00:51:23.810Z,99481
2018-02-12T00:53:52.175Z,99467
2018-02-12T00:56:20.508Z,99476
2018-02-12T00:58:48.978Z,99463
2018-02-12T01:01:17.316Z,99460
2018-02-12T01:03:45.643Z,99461
2018-02-12T01:06:13.904Z,99463
2018-02-12T01:08:42.215Z,99459
2018-02-12T01:11:11.315Z,99468
2018-02-12T01:13:39.584Z,99456
2018-02-12T01:16:07.890Z,99466
2018-02-12T01:18:36.264Z,99473
2018-02-12T01:21:04.649Z,99461
2018-02-12T01:23:33.026Z,99462
2018-02-12T01:26:02.119Z,99466
2018-02-12T01:28:30.479Z,99464
2018-02-12T01:30:58.797Z,99470
2018-02-12T01:33:27.140Z,99471
2018-02-12T01:35:55.398Z,99468
2018-02-12T01:38:23.714Z,99480
2018-02-12T01:40:52.822Z,99474
2018-02-12T01:43:21.248Z,99457
2018-02-12T01:45:49.604Z,99466
2018-02-12T01:48:17.888Z,99475
2018-02-12T01:50:46.193Z,99470
2018-02-12T01:53:14.562Z,99474
2018-02-12T01:55:42.845Z,99471
2018-02-12T01:58:11.118Z,99471
2018-02-12T02:00:39.622Z,99477
2018-02-12T02:03:08.667Z,99481
2018-02-12T02:05:36.903Z,99473
2018-02-12T02:08:05.994Z,99484
2018-02-12T02:10:34.258Z,99492
2018-02-12T02:13:02.542Z,99479
2018-02-12T02:15:30.834Z,99495
2018-02-12T02:17:59.180Z,99495
2018-02-12T02:20:27.412Z,99488
2018-02-12T02:22:55.713Z,99496
2018-02-12T02:25:24.016Z,99506
2018-02-12T02:27:52.268Z,99505
2018-02-12T02:30:20.572Z,99493
2018-02-12T02:32:48.859Z,99501
2018-02-12T02:35:17.116Z,99514
2018-02-12T02:37:45.448Z,99511
2018-02-12T02:40:13.751Z,99501
2018-02-12T02:42:42.026Z,99514
2018-02-12T02:45:11.144Z,99516
2018-02-12T02:47:39.418Z,99526
2018-02-12T02:50:07.651Z,99527
2018-02-12T02:52:35.941Z,99523
2018-02-12T02:55:04.225Z,99524
2018-02-12T02:57:32.481Z,99529
2018-02-12T03:00:00.819Z,99529
2018-02-12T03:02:29.354Z,99532
2018-02-12T03:04:57.684Z,99533
2018-02-12T03:07:26.017Z,99531
2018-02-12T03:09:54.326Z,99541
2018-02-12T03:12:22.689Z,99536
2018-02-12T03:14:51.059Z,99538
2018-02-12T03:17:19.374Z,99548
2018-02-12T03:19:47.623Z,99546
2018-02-12T03:22:17.611Z,99554
2018-02-12T03:24:45.878Z,99549
2018-02-12T03:27:14.171Z,99563
2018-02-12T03:29:43.421Z,99554
2018-02-12T03:32:11.686Z,99551
2018-02-12T03:34:39.982Z,99562
2018-02-12T03:37:09.143Z,99568
2018-02-12T03:39:37.414Z,99555
2018-02-12T03:42:05.714Z,99552
2018-02-12T03:44:34.021Z,99567
2018-02-12T03:47:02.303Z,99562
2018-02-12T03:49:30.584Z,99574
2018-02-12T03:51:58.898Z,99569
2018-02-12T03:54:27.934Z,99578
2018-02-12T03:56:56.258Z,99583
2018-02-12T03:59:24.551Z,99584
2018-02-12T04:01:52.844Z,99581
2018-02-12T04:04:21.403Z,99582
2018-02-12T04:06:49.679Z,99592
2018-02-12T04:09:18.746Z,99592
2018-02-12T04:11:47.756Z,99586
2018-02-12T04:14:16.045Z,99585
2018-02-12T04:16:44.346Z,99586
2018-02-12T04:19:12.672Z,99591
2018-02-12T04:21:40.948Z,99591
2018-02-12T04:24:09.212Z,99596
2018-02-12T04:26:37.490Z,99597
2018-02-12T04:29:05.946Z,99602
2018-02-12T04:31:34.228Z,99610
2018-02-12T04:34:02.518Z,99613
2018-02-12T04:36:30.859Z,99603
2018-02-12T04:38:59.115Z,99605
2018-02-12T04:41:28.148Z,99610
2018-02-12T04:43:56.454Z,99605
2018-02-12T04:46:27.106Z,99605
2018-02-12T04:48:55.371Z,99599
2018-02-12T04:51:23.682Z,99605
2018-02-12T04:53:51.973Z,99617
2018-02-12T04:56:20.216Z,99613
2018-02-12T04:58:49.340Z,99620
2018-02-12T05:01:17.637Z,99620
2018-02-12T05:03:45.924Z,99610
2018-02-12T05:06:14.255Z,99626
2018-02-12T05:08:43.327Z,99621
2018-02-12T05:11:11.626Z,99631
2018-02-12T05:13:40.683Z,99626
2018-02-12T05:16:09.030Z,99627
2018-02-12T05:18:37.375Z,99623
2018-02-12T05:21:05.781Z,99618
2018-02-12T05:23:34.051Z,99620
2018-02-12T05:26:02.352Z,99623
2018-02-12T05:28:30.682Z,99624
2018-02-12T05:30:59.693Z,99626
2018-02-12T05:33:27.999Z,99629
2018-02-12T05:35:56.353Z,99636
2018-02-12T05:38:24.605Z,99647
2018-02-12T05:40:53.751Z,99650
2018-02-12T05:43:22.056Z,99652
2018-02-12T05:45:50.273Z,99659
2018-02-12T05:48:18.588Z,99664
2018-02-12T05:50:46.939Z,99658
2018-02-12T05:53:15.208Z,99663
2018-02-12T05:55:43.506Z,99672
2018-02-12T05:58:11.829Z,99678
2018-02-12T06:00:40.850Z,99670
2018-02-12T06:03:09.151Z,99685
2018-02-12T06:05:37.433Z,99676
2018-02-12T06:08:05.685Z,99679
2018-02-12T06:10:33.966Z,99673
2018-02-12T06:13:02.262Z,99666
2018-02-12T06:15:30.523Z,99681
2018-02-12T06:17:58.774Z,99685
2018-02-12T06:20:27.073Z,99686
2018-02-12T06:22:56.130Z,99697
2018-02-12T06:25:25.143Z,99698
2018-02-12T06:27:53.449Z,99708
2018-02-12T06:30:21.774Z,99716
2018-02-12T06:32:50.789Z,99718
2018-02-12T06:35:19.171Z,99717
2018-02-12T06:37:47.413Z,99724
2018-02-12T06:40:16.413Z,99723
2018-02-12T06:42:44.843Z,99726
2018-02-12T06:45:13.099Z,99732
2018-02-12T06:47:41.368Z,99733
2018-02-12T06:50:09.639Z,99740
2018-02-12T06:52:38.662Z,99740
2018-02-12T06:55:06.898Z,99742
2018-02-12T06:57:35.306Z,99747
2018-02-12T07:00:03.532Z,99742
2018-02-12T07:02:32.574Z,99751
2018-02-12T07:05:00.858Z,99749
2018-02-12T07:07:29.120Z,99760
2018-02-12T07:09:57.387Z,99760
2018-02-12T07:12:25.808Z,99753
2018-02-12T07:14:54.042Z,99741
2018-02-12T07:17:22.289Z,99760
2018-02-12T07:19:50.588Z,99762
2018-02-12T07:22:18.880Z,99758
2018-02-12T07:24:47.160Z,99754
2018-02-12T07:27:15.548Z,99759
2018-02-12T07:29:43.873Z,99768
2018-02-12T07:32:12.149Z,99764
2018-02-12T07:34:40.565Z,99774
2018-02-12T07:37:08.871Z,99772
2018-02-12T07:39:37.101Z,99772
2018-02-12T07:42:05.449Z,99783
2018-02-12T07:44:33.714Z,99791
2018-02-12T07:47:01.978Z,99788
2018-02-12T07:49:30.362Z,99788
2018-02-12T07:51:58.747Z,99788
2018-02-12T07:54:27.090Z,99788
2018-02-12T07:56:55.446Z,99788
2018-02-12T07:59:23.718Z,99793
2018-02-12T08:01:52.032Z,99799
2018-02-12T08:04:20.899Z,99811
2018-02-12T08:06:49.229Z,99802
2018-02-12T08:09:18.280Z,99806
2018-02-12T08:11:46.649Z,99800
2018-02-12T08:14:15.141Z,99798
2018-02-12T08:16:43.527Z,99806
2018-02-12T08:19:11.920Z,99804
2018-02-12T08:21:40.293Z,99817
2018-02-12T08:24:08.554Z,99819
2018-02-12T08:26:36.878Z,99817
2018-02-12T08:29:06.253Z,99827
2018-02-12T08:31:34.689Z,99822
2018-02-12T08:34:03.116Z,99822
2018-02-12T08:36:32.297Z,99834
2018-02-12T08:39:01.485Z,99846
2018-02-12T08:41:29.834Z,99837
2018-02-12T08:43:58.128Z,99834
2018-02-12T08:46:26.597Z,99833
2018-02-12T08:48:54.894Z,99844
2018-02-12T08:51:23.274Z,99836
2018-02-12T08:53:51.597Z,99842
2018-02-12T08:56:19.866Z,99840
2018-02-12T08:58:48.979Z,99839
2018-02-12T09:01:17.323Z,99842
2018-02-12T09:03:45.624Z,99849
2018-02-12T09:06:14.842Z,99852
2018-02-12T09:08:43.197Z,99845
2018-02-12T09:11:12.363Z,99847
2018-02-12T09:13:41.012Z,99844
2018-02-12T09:16:09.299Z,99849
2018-02-12T09:18:37.585Z,99852
2018-02-12T09:21:05.949Z,99854
2018-02-12T09:23:34.258Z,99844
2018-02-12T09:26:03.439Z,99855
2018-02-12T09:28:32.669Z,99855
2018-02-12T09:31:01.757Z,99854
2018-02-12T09:33:30.846Z,99856
2018-02-12T09:35:59.181Z,99859
2018-02-12T09:38:27.413Z,99859
2018-02-12T09:40:56.611Z,99865
2018-02-12T09:43:25.722Z,99868
2018-02-12T09:45:54.047Z,99870
2018-02-12T09:48:22.732Z,99868
2018-02-12T09:50:51.053Z,99869
2018-02-12T09:53:20.243Z,99859
2018-02-12T09:55:49.428Z,99869
2018-02-12T09:58:17.789Z,99878
2018-02-12T10:00:46.080Z,99879
2018-02-12T10:03:14.438Z,99876
2018-02-12T10:05:42.714Z,99877
2018-02-12T10:08:11.884Z,99881
2018-02-12T10:10:40.178Z,99889
2018-02-12T10:13:08.663Z,99874
2018-02-12T10:15:36.987Z,99881
2018-02-12T10:18:05.330Z,99882
2018-02-12T10:20:33.646Z,99885
2018-02-12T10:23:04.010Z,99886
2018-02-12T10:25:30.282Z,99890
2018-02-12T10:27:59.711Z,99888
2018-02-12T10:30:27.958Z,99893
2018-02-12T10:32:57.049Z,99884
2018-02-12T10:35:25.392Z,99888
2018-02-12T10:37:53.810Z,99887
2018-02-12T10:40:22.883Z,99887
2018-02-12T10:42:51.213Z,99883
2018-02-12T10:45:19.454Z,99896
2018-02-12T10:47:47.738Z,99890
2018-02-12T10:50:16.800Z,99887
2018-02-12T10:52:45.128Z,99891
2018-02-12T10:55:13.522Z,99888
2018-02-12T10:57:41.854Z,99895
2018-02-12T11:00:10.119Z,99894
2018-02-12T11:02:38.427Z,99898
2018-02-12T11:05:06.687Z,99900
2018-02-12T11:07:35.206Z,99903
2018-02-12T11:10:03.526Z,99902
2018-02-12T11:12:32.650Z,99905
2018-02-12T11:15:00.924Z,99898
2018-02-12T11:17:30.340Z,99905
2018-02-12T11:19:59.515Z,99913
2018-02-12T11:22:27.794Z,99911
2018-02-12T11:24:56.885Z,99898
2018-02-12T11:27:25.138Z,99911
2018-02-12T11:29:54.187Z,99910
2018-02-12T11:32:22.543Z,99904
2018-02-12T11:34:51.201Z,99912
2018-02-12T11:37:19.425Z,99899
2018-02-12T11:39:47.778Z,99902
2018-02-12T11:42:16.501Z,99911
2018-02-12T11:44:44.732Z,99912
2018-02-12T11:47:13.939Z,99913
2018-02-12T11:49:42.245Z,99916
2018-02-12T11:52:10.714Z,99902
2018-02-12T11:54:39.061Z,99911
2018-02-12T11:57:07.274Z,99918
2018-02-12T11:59:35.545Z,99908
2018-02-12T12:02:04.649Z,99919
2018-02-12T12:04:32.888Z,99912
2018-02-12T12:07:01.203Z,99923
2018-02-12T12:09:29.520Z,99924
2018-02-12T12:11:57.946Z,99921
2018-02-12T12:14:26.195Z,99927
2018-02-12T12:16:55.330Z,99921
2018-02-12T12:19:23.708Z,99928
2018-02-12T12:21:52.113Z,99929
2018-02-12T12:24:20.485Z,99926
2018-02-12T12:26:48.774Z,99926
2018-02-12T12:29:17.058Z,99923
2018-02-12T12:31:45.475Z,99920
2018-02-12T12:34:13.851Z,99918
2018-02-12T12:36:43.090Z,99917
2018-02-12T12:39:11.468Z,99924
2018-02-12T12:41:40.057Z,99916
2018-02-12T12:44:08.323Z,99927
2018-02-12T12:46:36.587Z,99921
2018-02-12T12:49:05.146Z,99924
2018-02-12T12:51:34.356Z,99936
2018-02-12T12:54:02.688Z,99930
2018-02-12T12:56:30.988Z,99930
2018-02-12T12:58:59.242Z,99929
2018-02-12T13:01:28.433Z,99921
2018-02-12T13:03:56.734Z,99921
2018-02-12T13:06:25.792Z,99930
2018-02-12T13:08:54.419Z,99934
2018-02-12T13:11:23.413Z,99929
2018-02-12T13:13:52.500Z,99937
2018-02-12T13:16:21.573Z,99936
2018-02-12T13:18:49.871Z,99937
2018-02-12T13:21:18.974Z,99934
2018-02-12T13:23:47.322Z,99934
2018-02-12T13:26:15.569Z,99941
2018-02-12T13:28:43.829Z,99952
2018-02-12T13:31:12.237Z,99950
2018-02-12T13:33:40.487Z,99959
2018-02-12T13:36:08.765Z,99951
2018-02-12T13:38:37.071Z,99954
2018-02-12T13:41:05.339Z,99956
2018-02-12T13:43:33.571Z,99961
2018-02-12T13:46:01.907Z,99956
2018-02-12T13:48:30.189Z,99963
2018-02-12T13:50:58.430Z,99954
2018-02-12T13:53:26.853Z,99969
2018-02-12T13:55:55.890Z,99965
2018-02-12T13:58:24.182Z,99967
2018-02-12T14:00:52.463Z,99973
2018-02-12T14:03:20.703Z,99974
2018-02-12T14:05:48.965Z,99979
2018-02-12T14:08:17.314Z,99970
2018-02-12T14:10:45.593Z,99977
2018-02-12T14:13:14.643Z,99973
2018-02-12T14:15:42.930Z,99981
2018-02-12T14:18:11.213Z,99981
2018-02-12T14:20:39.514Z,99974
2018-02-12T14:23:07.920Z,99989
2018-02-12T14:25:36.194Z,99982
2018-02-12T14:28:05.201Z,99983
2018-02-12T14:30:33.533Z,99986
2018-02-12T14:33:01.782Z,99991
2018-02-12T14:35:30.020Z,99985
2018-02-12T14:37:58.357Z,99994
2018-02-12T14:40:26.596Z,99998
2018-02-12T14:42:54.836Z,99996
2018-02-12T14:45:23.162Z,100009
2018-02-12T14:47:51.398Z,100013
2018-02-12T14:50:19.659Z,100005
2018-02-12T14:52:47.980Z,100003
2018-02-12T14:55:16.215Z,100010
2018-02-12T14:57:45.270Z,100014
2018-02-12T15:00:13.581Z,100021
2018-02-12T15:02:41.854Z,100010
2018-02-12T15:05:10.856Z,100021
2018-02-12T15:07:39.917Z,100028
2018-02-12T15:10:08.144Z,100031
2018-02-12T15:12:36.420Z,100027
2018-02-12T15:15:04.713Z,100035
2018-02-12T15:17:32.945Z,100043
2018-02-12T15:20:01.192Z,100043
2018-02-12T15:22:29.480Z,100055
2018-02-12T15:24:57.720Z,100060
2018-02-12T15:27:25.964Z,100060
2018-02-12T15:29:54.278Z,100057
2018-02-12T15:32:22.549Z,100057
2018-02-12T15:34:51.648Z,100067
2018-02-12T15:37:19.915Z,100076
2018-02-12T15:39:48.143Z,100073
2018-02-12T15:42:17.154Z,100079
2018-02-12T15:44:45.453Z,100080
2018-02-12T15:47:13.696Z,100083
2018-02-12T15:49:41.940Z,100101
2018-02-12T15:52:10.216Z,100091
2018-02-12T15:54:38.469Z,100102
2018-02-12T15:57:06.690Z,100106
2018-02-12T15:59:35.761Z,100108
2018-02-12T16:02:03.980Z,100115
2018-02-12T16:04:32.208Z,100107
2018-02-12T16:07:00.631Z,100110
2018-02-12T16:09:28.881Z,100117
2018-02-12T16:11:57.924Z,100121
2018-02-12T16:14:26.233Z,100120
2018-02-12T16:16:54.460Z,100131
2018-02-12T16:19:22.985Z,100139
2018-02-12T16:21:51.279Z,100135
2018-02-12T16:24:19.570Z,100135
2018-02-12T16:26:47.873Z,100124
2018-02-12T16:29:16.223Z,100132
2018-02-12T16:31:44.495Z,100124
2018-02-12T16:34:13.572Z,100125
2018-02-12T16:36:42.617Z,100138
2018-02-12T16:39:10.979Z,100137
2018-02-12T16:41:39.312Z,100144
2018-02-12T16:44:07.678Z,100138
2018-02-12T16:46:36.004Z,100135
2018-02-12T16:49:05.048Z,100139
2018-02-12T16:51:34.649Z,100142
2018-02-12T16:54:09.812Z,100147
2018-02-12T16:56:39.543Z,100154
2018-02-12T16:59:08.473Z,100154
2018-02-12T17:01:37.929Z,100151
2018-02-12T17:04:06.903Z,100157
2018-02-12T17:06:35.480Z,100164
2018-02-12T17:09:05.472Z,100167
2018-02-12T17:11:35.896Z,100178
2018-02-12T17:14:06.530Z,100177
2018-02-12T17:16:37.894Z,100191
2018-02-12T17:19:08.733Z,100180
2018-02-12T17:21:39.643Z,100171
2018-02-12T17:24:08.553Z,100172
2018-02-12T17:26:38.750Z,100183
2018-02-12T17:29:08.705Z,100188
2018-02-12T17:31:40.633Z,100189
2018-02-12T17:34:09.439Z,100196
2018-02-12T17:36:37.675Z,100198
2018-02-12T17:39:06.714Z,100206
2018-02-12T17:41:35.087Z,100208
2018-02-12T17:44:03.385Z,100208
2018-02-12T17:46:31.679Z,100215
2018-02-12T17:49:00.149Z,100219
2018-02-12T17:51:29.187Z,100206
2018-02-12T17:53:57.424Z,100218
2018-02-12T17:56:26.492Z,100231
2018-02-12T17:58:54.925Z,100228
2018-02-12T18:01:23.284Z,100246
2018-02-12T18:03:52.304Z,100236
2018-02-12T18:06:20.608Z,100242
2018-02-12T18:08:49.501Z,100248
2018-02-12T18:11:17.842Z,100246
2018-02-12T18:13:46.201Z,100246
2018-02-12T18:16:15.254Z,100247
2018-02-12T18:18:43.544Z,100255
2018-02-12T18:21:11.823Z,100257
2018-02-12T18:23:40.160Z,100256
2018-02-12T18:26:09.246Z,100264
2018-02-12T18:28:37.544Z,100262
2018-02-12T18:31:05.781Z,100264
2018-02-12T18:33:34.649Z,100258
2018-02-12T18:36:03.709Z,100263
2018-02-12T18:38:31.990Z,100261
2018-02-12T18:41:00.226Z,100271
2018-02-12T18:43:28.478Z,100257
2018-02-12T18:45:58.322Z,100263
2018-02-12T18:48:26.557Z,100264
2018-02-12T18:50:55.558Z,100265
2018-02-12T18:53:24.578Z,100276
2018-02-12T18:55:52.948Z,100281
2018-02-12T18:58:21.201Z,100283
2018-02-12T19:00:49.499Z,100291
2018-02-12T19:03:17.781Z,100295
2018-02-12T19:05:46.015Z,100296
2018-02-12T19:08:14.247Z,100298
2018-02-12T19:10:43.330Z,100300
2018-02-12T19:13:11.637Z,100302
2018-02-12T19:15:39.964Z,100312
2018-02-12T19:18:08.311Z,100304
2018-02-12T19:20:36.968Z,100309
2018-02-12T19:23:05.216Z,100310
2018-02-12T19:25:33.730Z,100316
2018-02-12T19:28:01.982Z,100299
2018-02-12T19:30:30.232Z,100307
2018-02-12T19:32:58.562Z,100314
2018-02-12T19:35:26.867Z,100313
2018-02-12T19:37:55.159Z,100317
2018-02-12T19:40:24.171Z,100342
2018-02-12T19:42:52.558Z,100337
2018-02-12T19:45:20.817Z,100337
2018-02-12T19:47:49.152Z,100350
2018-02-12T19:50:17.453Z,100351
2018-02-12T19:52:46.464Z,100351
2018-02-12T19:55:14.907Z,100349
2018-02-12T19:57:43.207Z,100343
2018-02-12T20:00:12.244Z,100346
2018-02-12T20:02:40.573Z,100351
2018-02-12T20:05:08.848Z,100359
2018-02-12T20:07:37.126Z,100345
2018-02-12T20:10:05.477Z,100356
2018-02-12T20:12:35.084Z,100347
2018-02-12T20:15:03.338Z,100358
2018-02-12T20:17:31.671Z,100353
2018-02-12T20:19:59.909Z,100359
2018-02-12T20:22:28.138Z,100367
2018-02-12T20:24:57.953Z,100363
2018-02-12T20:27:26.202Z,100372
2018-02-12T20:29:54.517Z,100362
2018-02-12T20:32:23.503Z,100369
2018-02-12T20:34:51.806Z,100378
2018-02-12T20:37:20.353Z,100375
2018-02-12T20:39:48.675Z,100385
2018-02-12T20:42:16.926Z,100393
2018-02-12T20:44:45.196Z,100380
2018-02-12T20:47:13.517Z,100388
2018-02-12T20:49:42.550Z,100383
2018-02-12T20:52:10.797Z,100384
2018-02-12T20:54:39.109Z,100386
2018-02-12T20:57:07.374Z,100392
2018-02-12T20:59:35.630Z,100382
2018-02-12T21:02:04.697Z,100396
2018-02-12T21:04:32.958Z,100401
2018-02-12T21:07:01.214Z,100392
2018-02-12T21:09:29.531Z,100391
2018-02-12T21:11:57.817Z,100396
2018-02-12T21:14:26.803Z,100396
2018-02-12T21:16:55.879Z,100395
2018-02-12T21:19:24.103Z,100401
2018-02-12T21:21:52.376Z,100410
2018-02-12T21:24:20.704Z,100401
2018-02-12T21:26:48.940Z,100416
2018-02-12T21:29:17.189Z,100416
2018-02-12T21:31:46.293Z,100420
2018-02-12T21:34:14.535Z,100428
2018-02-12T21:36:44.324Z,100429
2018-02-12T21:39:12.704Z,100431
2018-02-12T21:41:40.944Z,100436
2018-02-12T21:44:09.229Z,100444
2018-02-12T21:46:37.547Z,100446
2018-02-12T21:49:05.807Z,100449
2018-02-12T21:51:34.070Z,100449
2018-02-12T21:54:02.353Z,100455
2018-02-12T21:56:30.614Z,100452
2018-02-12T21:58:58.868Z,100458
2018-02-12T22:01:27.169Z,100451
2018-02-12T22:03:55.478Z,100453
2018-02-12T22:06:24.498Z,100450
2018-02-12T22:08:52.857Z,100442
2018-02-12T22:11:21.875Z,100448
2018-02-12T22:13:50.885Z,100455
2018-02-12T22:16:19.243Z,100464
2018-02-12T22:18:47.561Z,100464
2018-02-12T22:21:15.805Z,100458
2018-02-12T22:23:44.856Z,100463
2018-02-12T22:26:13.096Z,100466
2018-02-12T22:28:41.350Z,100468
2018-02-12T22:31:09.662Z,100461
2018-02-12T22:33:37.915Z,100458
2018-02-12T22:36:06.173Z,100463
2018-02-12T22:38:34.450Z,100457
2018-02-12T22:41:02.941Z,100457
2018-02-12T22:43:31.228Z,100471
2018-02-12T22:45:59.498Z,100467
2018-02-12T22:48:27.725Z,100474
2018-02-12T22:50:55.966Z,100472
2018-02-12T22:53:24.258Z,100470
2018-02-12T22:55:52.500Z,100472
2018-02-12T22:58:21.785Z,100476
2018-02-12T23:00:50.069Z,100473
2018-02-12T23:03:18.343Z,100477
2018-02-12T23:05:46.780Z,100487
2018-02-12T23:08:15.043Z,100494
2018-02-12T23:10:44.322Z,100494
2018-02-12T23:13:12.554Z,100489
2018-02-12T23:15:40.827Z,100491
2018-02-12T23:18:10.097Z,100507
2018-02-12T23:20:38.408Z,100499
2018-02-12T23:23:06.734Z,100503
2018-02-12T23:25:35.005Z,100506
2018-02-12T23:28:03.295Z,100502
2018-02-12T23:30:31.576Z,100510
2018-02-12T23:32:59.817Z,100501
2018-02-12T23:35:28.062Z,100512
2018-02-12T23:37:57.105Z,100513
2018-02-12T23:40:25.464Z,100512
2018-02-12T23:42:53.817Z,100512
2018-02-12T23:45:22.120Z,100519
2018-02-12T23:47:50.359Z,100512
2018-02-12T23:50:19.455Z,100530
2018-02-12T23:52:47.755Z,100516
2018-02-12T23:55:16.216Z,100525
2018-02-12T23:57:45.197Z,100519
